Time;durP1;ratioP1;P1;durP2;ratioP2;P2;SDS_P1;SDS_P2;PMS_P1;PMS_P2;Temp;Humidity;BMP_temperature;BMP_pressure;BME280_temperature;BME280_humidity;BME280_pressure;Samples;Min_cycle;Max_cycle;Signal;HPM_P1;HPM_P2
2023/05/26 00:01:36;;;;;;;18.30;9.82;;;;;;;13.31;64.69;98965.94;4978935;28;20038;-78
2023/05/26 00:04:02;;;;;;;17.63;9.73;;;;;;;13.18;65.01;98967.06;4981297;28;20053;-77
2023/05/26 00:06:31;;;;;;;21.40;10.63;;;;;;;12.90;66.42;98979.72;4954123;28;20081;-77
2023/05/26 00:08:57;;;;;;;19.48;9.25;;;;;;;13.04;66.04;98981.09;4987953;28;20098;-77
2023/05/26 00:11:22;;;;;;;15.43;10.75;;;;;;;12.60;67.10;98973.69;4983575;28;20044;-77
2023/05/26 00:13:47;;;;;;;19.38;9.88;;;;;;;12.53;67.39;98979.25;4964950;28;20027;-78
2023/05/26 00:16:13;;;;;;;16.88;10.38;;;;;;;13.04;65.69;98986.50;4969810;28;20053;-78
2023/05/26 00:18:38;;;;;;;15.40;9.23;;;;;;;13.10;64.99;98980.16;4961208;28;20050;-78
2023/05/26 00:21:04;;;;;;;15.57;9.10;;;;;;;12.87;65.84;98975.63;4996845;28;20105;-78
2023/05/26 00:23:30;;;;;;;16.38;10.23;;;;;;;12.75;66.31;98992.91;4982392;28;20053;-78
2023/05/26 00:25:56;;;;;;;15.23;9.57;;;;;;;13.09;65.45;98983.94;4980383;28;20488;-79
2023/05/26 00:28:21;;;;;;;16.48;10.00;;;;;;;12.99;65.72;98987.22;4967657;28;20405;-78
2023/05/26 00:30:46;;;;;;;16.85;9.60;;;;;;;13.03;65.31;98990.25;4972241;28;20401;-78
2023/05/26 00:33:12;;;;;;;17.60;10.35;;;;;;;12.72;66.81;98985.31;4989587;28;20084;-78
2023/05/26 00:35:37;;;;;;;16.50;10.10;;;;;;;12.72;66.16;98988.00;4968402;28;20030;-78
2023/05/26 00:38:04;;;;;;;18.63;9.50;;;;;;;12.61;66.52;98981.56;4967044;28;20051;-78
2023/05/26 00:40:32;;;;;;;16.25;9.45;;;;;;;12.35;67.36;98988.28;4963341;28;20068;-80
2023/05/26 00:42:58;;;;;;;17.00;9.85;;;;;;;12.36;67.00;98979.13;4993212;28;20117;-79
2023/05/26 00:45:23;;;;;;;12.90;9.80;;;;;;;12.25;67.75;98998.84;4968920;28;20129;-78
2023/05/26 00:47:49;;;;;;;18.83;9.80;;;;;;;12.36;67.19;98998.06;4966205;28;20022;-78
2023/05/26 00:50:16;;;;;;;17.77;9.80;;;;;;;12.42;67.12;98986.28;4979079;23;20117;-78
2023/05/26 00:52:43;;;;;;;15.45;8.32;;;;;;;12.59;66.24;98988.25;4978030;28;20488;-77
2023/05/26 00:55:08;;;;;;;17.88;9.30;;;;;;;12.67;66.20;98990.59;4978957;28;20611;-77
2023/05/26 00:57:36;;;;;;;17.90;9.20;;;;;;;12.55;65.99;98971.72;4977512;28;20097;-78
2023/05/26 01:00:03;;;;;;;15.48;9.20;;;;;;;12.52;66.67;98976.75;4994903;28;20406;-77
2023/05/26 01:02:29;;;;;;;13.85;8.40;;;;;;;12.63;65.70;98978.59;4977235;28;20022;-78
2023/05/26 01:04:54;;;;;;;15.60;9.15;;;;;;;12.63;66.25;98975.91;4980254;28;20034;-77
2023/05/26 01:07:21;;;;;;;16.65;9.30;;;;;;;12.43;66.96;98971.72;4973975;28;20081;-78
2023/05/26 01:09:47;;;;;;;14.80;8.80;;;;;;;12.59;66.21;98982.84;4961050;28;20034;-77
2023/05/26 01:12:56;;;;;;;15.50;9.10;;;;;;;12.65;65.96;98977.31;4976937;28;20023;-77
2023/05/26 01:15:26;;;;;;;17.38;9.30;;;;;;;12.58;66.07;98973.13;4985297;28;20046;-77
2023/05/26 01:18:06;;;;;;;13.02;9.38;;;;;;;12.61;65.89;98967.22;4957785;28;20049;-77
2023/05/26 01:23:19;;;;;;;16.92;9.10;;;;;;;12.41;66.64;98959.53;5010952;28;20046;-77
2023/05/26 01:26:16;;;;;;;14.60;8.82;;;;;;;12.45;66.93;98977.72;5012550;28;20042;-75
2023/05/26 01:28:43;;;;;;;17.55;8.88;;;;;;;12.55;66.13;98965.47;4975710;28;20049;-77
2023/05/26 01:31:09;;;;;;;14.93;9.07;;;;;;;12.42;66.75;98961.97;4981243;28;20058;-76
2023/05/26 01:33:35;;;;;;;14.35;8.70;;;;;;;12.50;66.61;98971.59;4987245;28;20034;-76
2023/05/26 01:36:02;;;;;;;14.02;8.80;;;;;;;12.47;66.50;98962.09;5001149;28;20022;-76
2023/05/26 01:38:28;;;;;;;15.90;8.70;;;;;;;12.52;66.35;98965.94;4979585;28;20038;-76
2023/05/26 01:41:06;;;;;;;17.75;9.68;;;;;;;12.48;66.88;98974.53;4964303;28;20393;-76
2023/05/26 01:43:40;;;;;;;16.25;9.15;;;;;;;12.53;66.74;98983.81;4973032;28;20042;-76
2023/05/26 01:46:22;;;;;;;14.23;8.95;;;;;;;12.45;66.93;98972.31;4986005;28;20039;-76
2023/05/26 01:48:47;;;;;;;15.48;8.82;;;;;;;12.36;67.14;98965.63;4992829;28;20038;-78
2023/05/26 01:51:16;;;;;;;14.27;8.63;;;;;;;12.36;66.83;98968.34;4963621;28;20037;-77
2023/05/26 01:53:42;;;;;;;15.30;9.07;;;;;;;12.03;68.45;98968.13;4981908;28;20038;-77
2023/05/26 01:56:08;;;;;;;14.60;9.18;;;;;;;12.18;68.02;98964.94;4986269;28;20023;-78
2023/05/26 01:58:35;;;;;;;17.83;9.65;;;;;;;12.14;67.93;98969.97;4969225;28;20038;-78
2023/05/26 02:01:03;;;;;;;13.57;9.63;;;;;;;11.84;69.43;98957.66;4972597;28;20046;-77
2023/05/26 02:03:28;;;;;;;14.73;10.13;;;;;;;11.62;70.17;98960.88;4983135;28;20031;-76
2023/05/26 02:05:54;;;;;;;16.50;10.60;;;;;;;11.48;71.15;98958.63;4979253;28;20034;-77
2023/05/26 02:08:21;;;;;;;15.63;10.82;;;;;;;11.62;70.43;98962.78;4965961;28;20034;-77
2023/05/26 02:10:46;;;;;;;17.20;11.07;;;;;;;11.65;70.22;98948.78;5002067;28;20023;-77
2023/05/26 02:13:12;;;;;;;16.30;12.00;;;;;;;11.48;70.64;98953.25;4968389;28;20515;-78
2023/05/26 02:15:37;;;;;;;19.33;12.25;;;;;;;11.48;70.79;98953.25;4967038;28;20026;-78
2023/05/26 02:18:10;;;;;;;16.67;13.45;;;;;;;11.41;70.97;98953.31;4985730;28;20122;-78
2023/05/26 02:20:36;;;;;;;16.05;13.38;;;;;;;11.39;71.33;98955.44;4978467;28;20037;-79
2023/05/26 02:23:02;;;;;;;20.40;14.82;;;;;;;11.26;71.41;98949.41;4967637;28;20030;-78
2023/05/26 02:25:27;;;;;;;18.90;14.00;;;;;;;11.32;71.30;98951.22;4972415;28;20497;-77
2023/05/26 02:27:52;;;;;;;18.90;16.33;;;;;;;11.08;72.75;98953.81;4967433;28;20556;-74
2023/05/26 02:30:18;;;;;;;21.40;17.15;;;;;;;10.98;72.85;98956.25;4962381;28;20129;-74
2023/05/26 02:32:43;;;;;;;19.08;15.50;;;;;;;11.25;72.19;98940.50;4992843;28;20068;-75
2023/05/26 02:35:10;;;;;;;21.02;16.45;;;;;;;11.26;72.09;98949.41;4962732;28;20053;-76
2023/05/26 02:37:36;;;;;;;18.77;15.20;;;;;;;11.37;71.12;98951.31;4981154;28;20481;-75
2023/05/26 02:40:04;;;;;;;17.00;15.23;;;;;;;11.21;72.03;98951.97;4990351;28;20027;-74
2023/05/26 02:42:30;;;;;;;21.30;14.95;;;;;;;11.46;71.31;98960.75;4992914;28;20424;-76
2023/05/26 02:44:56;;;;;;;19.38;15.35;;;;;;;11.38;71.52;98952.97;5007871;28;20073;-76
2023/05/26 02:47:22;;;;;;;17.42;15.68;;;;;;;11.22;72.50;98953.63;4979465;28;20534;-76
2023/05/26 02:49:47;;;;;;;20.20;17.90;;;;;;;11.03;72.65;98945.63;4985615;28;20038;-76
2023/05/26 02:52:12;;;;;;;19.38;17.38;;;;;;;11.22;72.24;98953.63;4972750;28;20023;-76
2023/05/26 02:54:38;;;;;;;20.42;17.98;;;;;;;11.26;72.08;98954.81;4960521;28;20141;-76
2023/05/26 02:57:03;;;;;;;19.88;17.92;;;;;;;11.20;72.20;98945.78;4981367;28;20037;-76
2023/05/26 02:59:29;;;;;;;22.40;19.10;;;;;;;11.13;72.68;98949.63;4985461;28;20420;-77
2023/05/26 03:01:54;;;;;;;21.80;19.55;;;;;;;11.01;72.80;98957.66;4967078;28;20037;-76
2023/05/26 03:04:20;;;;;;;22.88;20.33;;;;;;;11.13;72.74;98944.22;4978145;28;20034;-76
2023/05/26 03:06:45;;;;;;;24.20;21.65;;;;;;;10.94;73.05;98952.38;4996623;28;20034;-76
2023/05/26 03:09:13;;;;;;;22.60;20.63;;;;;;;10.85;73.68;98953.72;5001627;28;20030;-76
2023/05/26 03:11:38;;;;;;;22.65;20.55;;;;;;;11.09;72.43;98938.47;4967048;28;20105;-76
2023/05/26 03:14:04;;;;;;;26.80;24.45;;;;;;;10.89;73.35;98943.31;4978774;28;20137;-78
2023/05/26 03:16:29;;;;;;;27.10;24.67;;;;;;;10.74;74.22;98951.78;4965264;28;20030;-76
2023/05/26 03:18:57;;;;;;;31.05;28.45;;;;;;;10.59;74.57;98954.06;4969150;28;20035;-76
2023/05/26 03:21:22;;;;;;;32.85;30.38;;;;;;;10.39;75.18;98953.47;4966810;28;20030;-76
2023/05/26 03:23:47;;;;;;;33.97;31.65;;;;;;;10.48;75.37;98951.31;4994285;28;20096;-76
2023/05/26 03:26:14;;;;;;;37.42;34.25;;;;;;;10.22;76.48;98952.44;4963917;28;20038;-76
2023/05/26 03:28:39;;;;;;;36.67;34.05;;;;;;;10.57;75.13;98947.28;4968916;28;20678;-77
2023/05/26 03:31:05;;;;;;;35.13;32.50;;;;;;;10.39;75.89;98954.28;4955706;28;20019;-76
2023/05/26 03:33:31;;;;;;;36.38;33.30;;;;;;;10.53;75.13;98946.88;4968788;28;20085;-77
2023/05/26 03:36:00;;;;;;;37.88;34.70;;;;;;;10.32;76.02;98950.03;4983365;28;20018;-77
2023/05/26 03:38:26;;;;;;;41.47;38.65;;;;;;;9.97;77.20;98948.91;4962374;28;20031;-76
2023/05/26 03:40:53;;;;;;;47.35;44.17;;;;;;;9.95;77.24;98951.84;4982259;28;20160;-75
2023/05/26 03:43:18;;;;;;;46.92;43.88;;;;;;;10.32;76.42;98958.94;4975860;28;20118;-76
2023/05/26 03:45:45;;;;;;;44.08;41.00;;;;;;;10.22;76.40;98952.44;5008126;28;20046;-77
2023/05/26 03:48:16;;;;;;;44.65;41.55;;;;;;;10.25;75.94;98947.41;4977946;28;20254;-76
2023/05/26 03:50:46;;;;;;;45.25;42.30;;;;;;;10.32;76.24;98947.34;4962632;28;20066;-76
2023/05/26 03:53:13;;;;;;;44.55;41.45;;;;;;;10.61;75.16;98949.28;4979958;28;20058;-75
2023/05/26 03:55:40;;;;;;;43.80;40.72;;;;;;;10.51;75.54;98942.75;4971459;28;20023;-76
2023/05/26 03:58:06;;;;;;;43.47;40.47;;;;;;;10.42;76.13;98953.03;4974735;28;20046;-76
2023/05/26 04:00:32;;;;;;;47.28;44.08;;;;;;;10.24;76.37;98955.72;4977890;28;20424;-75
2023/05/26 04:02:59;;;;;;;52.28;48.90;;;;;;;10.18;76.96;98967.38;4977935;28;20511;-75
2023/05/26 04:05:26;;;;;;;42.72;40.08;;;;;;;10.94;73.92;98956.94;4978050;28;20042;-76
2023/05/26 04:07:53;;;;;;;43.55;40.60;;;;;;;10.55;75.88;98960.94;4981291;28;20026;-75
2023/05/26 04:10:19;;;;;;;46.08;42.97;;;;;;;10.45;75.90;98962.53;4994297;28;20738;-75
2023/05/26 04:12:45;;;;;;;46.70;43.15;;;;;;;10.45;76.17;98965.22;4994050;28;20085;-76
2023/05/26 04:15:10;;;;;;;46.67;43.55;;;;;;;10.48;76.09;98965.56;4980776;28;20018;-75
2023/05/26 04:17:36;;;;;;;48.80;45.53;;;;;;;10.32;76.71;98964.31;4971120;28;20027;-76
2023/05/26 04:22:45;;;;;;;51.95;48.30;;;;;;;10.27;77.14;98971.41;5104967;23;20530;-75
2023/05/26 04:25:11;;;;;;;49.53;45.97;;;;;;;10.36;76.59;98962.00;4999810;28;20046;-75
2023/05/26 04:27:58;;;;;;;54.08;50.80;;;;;;;10.10;77.49;98973.84;4994122;28;20036;-75
2023/05/26 04:30:47;;;;;;;55.38;51.47;;;;;;;10.34;77.56;98967.59;4997071;28;20050;-75
2023/05/26 04:33:22;;;;;;;52.53;48.85;;;;;;;10.72;76.09;98971.94;5007020;28;20078;-75
2023/05/26 04:35:55;;;;;;;50.80;47.58;;;;;;;10.81;75.95;98975.94;4973737;28;20037;-75
2023/05/26 04:38:21;;;;;;;50.03;46.45;;;;;;;10.61;76.38;98968.13;5000127;28;20042;-76
2023/05/26 04:40:48;;;;;;;49.55;46.15;;;;;;;10.92;75.65;98965.22;4993513;28;20084;-76
2023/05/26 04:43:14;;;;;;;44.35;41.20;;;;;;;10.87;75.73;98973.19;5010710;28;20030;-76
2023/05/26 04:45:43;;;;;;;43.65;40.60;;;;;;;11.24;74.65;98965.00;4993449;28;20037;-75
2023/05/26 04:48:08;;;;;;;42.08;38.95;;;;;;;11.71;73.16;98964.09;5010903;28;20044;-76
2023/05/26 04:50:38;;;;;;;37.60;34.78;;;;;;;11.70;73.20;98957.88;4985479;28;20036;-75
2023/05/26 04:53:05;;;;;;;34.80;32.33;;;;;;;11.79;72.82;98955.66;5006376;28;20026;-77
2023/05/26 04:55:30;;;;;;;32.15;29.25;;;;;;;11.82;72.24;98960.59;4972610;28;20022;-77
2023/05/26 04:57:56;;;;;;;27.50;25.40;;;;;;;12.11;71.33;98969.66;4983294;28;20084;-77
2023/05/26 05:00:22;;;;;;;29.55;27.42;;;;;;;11.91;72.30;98969.97;4984801;28;20404;-76
2023/05/26 05:02:52;;;;;;;26.15;23.08;;;;;;;12.11;71.27;98970.44;4990356;28;20038;-76
2023/05/26 05:05:32;;;;;;;31.45;28.67;;;;;;;12.10;72.37;98971.53;4991812;28;20134;-76
2023/05/26 05:07:57;;;;;;;26.00;23.65;;;;;;;12.41;71.30;98965.75;5000324;28;20464;-77
2023/05/26 05:10:23;;;;;;;24.92;22.92;;;;;;;12.68;70.03;98978.72;4966476;28;20580;-76
2023/05/26 05:12:49;;;;;;;20.25;18.35;;;;;;;12.86;68.96;98967.75;4989352;28;20547;-77
2023/05/26 05:15:18;;;;;;;23.27;18.08;;;;;;;13.04;68.54;98975.69;4971115;28;20023;-73
2023/05/26 05:17:44;;;;;;;18.65;16.77;;;;;;;12.99;68.79;98983.69;4993003;28;20034;-76
2023/05/26 05:20:10;;;;;;;18.10;15.95;;;;;;;13.01;68.02;98976.16;4993632;28;20542;-76
2023/05/26 05:22:36;;;;;;;17.73;14.57;;;;;;;13.21;68.16;98978.47;4995980;28;20030;-76
2023/05/26 05:25:01;;;;;;;18.13;13.45;;;;;;;13.40;66.78;98969.91;4966399;28;20069;-77
2023/05/26 05:27:27;;;;;;;16.02;12.98;;;;;;;13.59;66.04;98974.03;5012241;28;20042;-76
2023/05/26 05:29:52;;;;;;;19.10;13.40;;;;;;;13.74;67.11;98979.72;5012322;28;20030;-76
2023/05/26 05:32:17;;;;;;;17.08;12.52;;;;;;;13.77;66.75;98986.50;4985827;28;20030;-75
2023/05/26 05:34:46;;;;;;;14.90;11.40;;;;;;;13.86;65.76;98980.44;4989149;28;20390;-75
2023/05/26 05:37:13;;;;;;;16.80;11.90;;;;;;;13.93;66.12;98982.16;5013364;28;20038;-76
2023/05/26 05:39:38;;;;;;;13.35;11.35;;;;;;;14.09;64.75;98992.16;4979887;28;20480;-76
2023/05/26 05:42:05;;;;;;;12.90;10.27;;;;;;;14.11;64.90;98988.16;5011789;28;20037;-76
2023/05/26 05:44:30;;;;;;;13.88;10.25;;;;;;;14.21;64.71;98992.91;5009679;28;20022;-76
2023/05/26 05:46:56;;;;;;;16.45;10.13;;;;;;;14.22;64.04;98989.13;5000431;28;20132;-76
2023/05/26 05:49:33;;;;;;;18.25;10.93;;;;;;;14.33;64.70;98985.50;4999684;28;20037;-76
2023/05/26 05:51:59;;;;;;;15.38;9.50;;;;;;;14.48;63.71;98993.88;4969373;28;20535;-76
2023/05/26 05:54:27;;;;;;;11.90;8.95;;;;;;;14.31;64.19;98980.34;4973229;28;20054;-76
2023/05/26 05:56:54;;;;;;;12.80;8.95;;;;;;;14.44;63.77;98987.31;5002013;28;20173;-76
2023/05/26 05:59:20;;;;;;;17.35;8.90;;;;;;;14.55;63.91;98994.50;4982165;28;20105;-76
2023/05/26 06:01:45;;;;;;;13.35;9.35;;;;;;;14.54;63.64;98984.72;5002445;28;20041;-76
2023/05/26 06:04:10;;;;;;;13.05;9.07;;;;;;;14.53;63.66;98985.81;4988431;28;20033;-76
2023/05/26 06:06:36;;;;;;;10.23;8.13;;;;;;;14.74;62.56;98992.31;4985719;28;20033;-76
2023/05/26 06:09:03;;;;;;;17.15;8.70;;;;;;;14.71;62.33;98990.09;4998274;28;20026;-76
2023/05/26 06:11:28;;;;;;;13.02;8.30;;;;;;;14.60;62.86;98993.75;4968555;28;20033;-77
2023/05/26 06:13:53;;;;;;;11.30;8.52;;;;;;;14.68;62.51;99001.47;4988592;28;20019;-76
2023/05/26 06:16:19;;;;;;;12.00;8.75;;;;;;;14.71;63.00;98999.06;5001904;28;20514;-77
2023/05/26 06:18:45;;;;;;;14.18;8.95;;;;;;;14.62;62.69;99008.69;4998646;28;20476;-77
2023/05/26 06:21:11;;;;;;;13.70;8.40;;;;;;;14.88;62.28;99005.25;5000305;28;20042;-75
2023/05/26 06:23:39;;;;;;;14.32;8.80;;;;;;;14.75;61.71;99005.63;4979431;28;20030;-77
2023/05/26 06:26:04;;;;;;;13.30;8.63;;;;;;;14.82;62.63;99008.97;4991826;28;20056;-77
2023/05/26 06:28:30;;;;;;;13.35;9.07;;;;;;;14.91;61.84;99004.72;5009133;28;20028;-76
2023/05/26 06:30:55;;;;;;;12.00;8.63;;;;;;;14.91;62.63;99012.88;4994783;28;20049;-76
2023/05/26 06:33:41;;;;;;;;;;;;;;;15.04;62.68;99017.94;4998575;28;20044;-78
2023/05/26 06:36:08;;;;;;;10.48;8.10;;;;;;;15.07;61.68;99008.47;4995751;28;19923;-77
2023/05/26 06:38:34;;;;;;;13.43;8.00;;;;;;;15.02;61.53;99025.50;4982896;28;20034;-77
2023/05/26 06:41:04;;;;;;;15.23;7.75;;;;;;;15.33;61.77;99023.16;5011202;28;20038;-78
2023/05/26 06:43:30;;;;;;;12.82;8.10;;;;;;;15.33;61.56;99017.72;5011084;28;20056;-77
2023/05/26 06:45:55;;;;;;;12.93;7.95;;;;;;;14.92;61.65;99024.53;4998106;28;20054;-77
2023/05/26 06:48:21;;;;;;;15.82;9.25;;;;;;;15.26;62.06;99022.53;4988339;28;20041;-77
2023/05/26 06:53:38;;;;;;;13.73;8.45;;;;;;;15.21;61.66;99002.41;4990817;28;20069;-78
2023/05/26 06:56:13;;;;;;;13.43;8.38;;;;;;;15.05;61.57;99000.56;4975121;28;20084;-77
2023/05/26 07:02:44;;;;;;;17.15;9.75;;;;;;;15.25;61.06;98994.56;5142330;23;20062;-77
2023/05/26 07:06:22;;;;;;;13.98;9.10;;;;;;;15.55;60.68;99037.53;4991363;28;20185;-77
2023/05/26 07:09:08;;;;;;;14.40;8.52;;;;;;;15.53;60.39;99028.81;4983248;28;20559;-75
2023/05/26 07:11:37;;;;;;;12.55;8.35;;;;;;;15.66;60.79;99039.28;4953338;28;20038;-77
2023/05/26 07:14:06;;;;;;;15.98;8.43;;;;;;;15.79;59.75;99036.97;4943338;28;20027;-77
2023/05/26 07:16:32;;;;;;;13.18;8.50;;;;;;;16.01;59.37;99042.31;4955676;28;20043;-77
2023/05/26 07:18:57;;;;;;;13.98;8.25;;;;;;;16.04;59.77;99030.94;4942831;28;20065;-77
2023/05/26 07:21:25;;;;;;;13.43;8.32;;;;;;;15.96;60.36;99027.88;4945316;28;20042;-77
2023/05/26 07:23:52;;;;;;;15.80;8.82;;;;;;;16.26;59.20;99028.94;4949804;29;20034;-77
2023/05/26 07:26:20;;;;;;;13.52;8.23;;;;;;;16.41;58.81;99039.09;4947051;28;20035;-77
2023/05/26 07:28:49;;;;;;;14.50;8.80;;;;;;;16.18;60.06;99037.56;4925753;28;20023;-77
2023/05/26 07:31:15;;;;;;;13.68;8.30;;;;;;;16.09;59.45;99039.13;4925968;29;20071;-77
2023/05/26 07:33:41;;;;;;;14.32;8.50;;;;;;;16.19;58.65;99039.22;4934187;29;20062;-77
2023/05/26 07:36:07;;;;;;;15.80;8.23;;;;;;;16.50;58.99;99046.50;4938916;29;20113;-77
2023/05/26 07:38:33;;;;;;;14.35;8.45;;;;;;;16.62;57.97;99032.75;4973146;28;20022;-76
2023/05/26 07:40:59;;;;;;;13.18;8.32;;;;;;;16.28;58.42;99042.28;4958015;28;20046;-77
2023/05/26 07:43:24;;;;;;;11.38;7.53;;;;;;;16.70;58.08;99047.75;4940345;28;20031;-77
2023/05/26 07:45:49;;;;;;;12.00;8.10;;;;;;;17.03;56.36;99040.06;4967932;28;20031;-77
2023/05/26 07:48:15;;;;;;;12.18;7.80;;;;;;;16.78;58.09;99039.91;4945413;28;20513;-75
2023/05/26 07:50:41;;;;;;;14.35;8.50;;;;;;;16.79;58.26;99032.56;4958857;28;20034;-77
2023/05/26 07:53:06;;;;;;;13.20;7.40;;;;;;;17.11;58.96;99041.44;4969239;28;20035;-77
2023/05/26 07:55:32;;;;;;;13.20;8.10;;;;;;;17.03;59.14;99037.34;4968696;28;20073;-77
2023/05/26 07:57:57;;;;;;;13.45;8.10;;;;;;;17.27;56.93;99040.41;4963275;28;20030;-77
2023/05/26 08:00:23;;;;;;;14.27;7.40;;;;;;;16.95;57.17;99035.09;4955507;28;20090;-77
2023/05/26 08:02:48;;;;;;;15.82;8.10;;;;;;;17.26;57.13;99050.50;4968013;28;20489;-76
2023/05/26 08:05:13;;;;;;;13.48;7.65;;;;;;;17.24;57.32;99043.69;4975509;28;20169;-77
2023/05/26 08:07:39;;;;;;;13.10;6.97;;;;;;;17.52;56.30;99048.72;4945749;28;20157;-76
2023/05/26 08:10:05;;;;;;;12.48;7.65;;;;;;;17.76;55.50;99038.13;4964867;28;20043;-76
2023/05/26 08:12:30;;;;;;;14.05;7.22;;;;;;;17.40;56.30;99047.25;4969604;28;20034;-77
2023/05/26 08:14:56;;;;;;;11.95;7.25;;;;;;;17.14;56.55;99035.47;4950067;28;20039;-77
2023/05/26 08:17:22;;;;;;;14.68;7.35;;;;;;;17.46;55.61;99049.72;4946007;28;20424;-77
2023/05/26 08:19:48;;;;;;;12.90;6.78;;;;;;;17.75;56.19;99047.38;4947429;28;20042;-76
2023/05/26 08:22:13;;;;;;;14.65;7.25;;;;;;;17.48;57.12;99053.00;4955119;28;20102;-73
2023/05/26 08:24:39;;;;;;;8.93;6.25;;;;;;;18.09;55.84;99042.22;4955507;28;20114;-77
2023/05/26 08:27:05;;;;;;;10.07;6.53;;;;;;;18.34;54.62;99040.31;4974323;28;20027;-76
2023/05/26 08:29:30;;;;;;;12.45;6.80;;;;;;;18.32;54.37;99053.41;4974415;28;20042;-77
2023/05/26 08:31:56;;;;;;;13.38;6.57;;;;;;;17.98;54.34;99043.31;4967815;28;20041;-77
2023/05/26 08:34:21;;;;;;;11.73;6.63;;;;;;;17.93;53.69;99044.97;4958132;28;20026;-77
2023/05/26 08:36:46;;;;;;;13.60;7.10;;;;;;;18.12;53.81;99037.06;4958167;28;20086;-77
2023/05/26 08:39:12;;;;;;;13.15;6.68;;;;;;;18.24;54.66;99039.53;4958183;28;20142;-77
2023/05/26 08:41:48;;;;;;;12.38;7.00;;;;;;;18.10;52.82;99038.44;4974201;28;20038;-77
2023/05/26 08:44:16;;;;;;;12.68;6.68;;;;;;;18.29;53.17;99042.25;4953822;28;20475;-77
2023/05/26 08:46:44;;;;;;;13.52;6.50;;;;;;;18.36;52.95;99048.25;4938716;29;20059;-77
2023/05/26 08:49:10;;;;;;;12.45;6.90;;;;;;;18.83;52.28;99037.03;4951762;28;20070;-77
2023/05/26 08:51:38;;;;;;;14.38;6.93;;;;;;;18.14;53.91;99034.06;4955012;28;20054;-77
2023/05/26 08:54:03;;;;;;;11.05;6.15;;;;;;;18.79;53.02;99034.00;4951767;28;20042;-77
2023/05/26 08:56:29;;;;;;;9.10;6.25;;;;;;;18.54;52.84;99034.06;4951228;29;20023;-76
2023/05/26 08:58:54;;;;;;;11.85;6.40;;;;;;;18.85;50.79;99038.38;4967446;28;20121;-77
2023/05/26 09:01:20;;;;;;;11.25;6.70;;;;;;;19.30;50.26;99032.72;4968337;28;20058;-77
2023/05/26 09:03:45;;;;;;;11.63;6.32;;;;;;;18.63;51.33;99046.06;4935397;28;20039;-77
2023/05/26 09:06:11;;;;;;;12.13;6.22;;;;;;;18.45;52.34;99036.53;4966829;28;20038;-77
2023/05/26 09:08:36;;;;;;;12.43;6.70;;;;;;;18.74;50.47;99033.22;4967374;28;20042;-77
2023/05/26 09:11:21;;;;;;;9.68;6.18;;;;;;;19.12;50.92;99030.63;4960862;28;20029;-77
2023/05/26 09:13:51;;;;;;;10.30;6.22;;;;;;;19.73;49.34;99033.06;4960520;28;20394;-77
2023/05/26 09:16:17;;;;;;;10.70;6.05;;;;;;;19.76;49.09;99032.50;4972786;28;20067;-77
2023/05/26 09:18:43;;;;;;;12.82;6.15;;;;;;;19.74;49.25;99026.53;4960507;28;20054;-77
2023/05/26 09:21:08;;;;;;;10.35;6.00;;;;;;;19.82;49.00;99039.56;4954040;28;20035;-77
2023/05/26 09:23:34;;;;;;;10.82;6.25;;;;;;;19.61;50.59;99029.88;4957076;28;20023;-77
2023/05/26 09:25:59;;;;;;;12.20;6.93;;;;;;;19.70;48.08;99036.38;4957445;28;20473;-77
2023/05/26 09:28:24;;;;;;;16.10;6.78;;;;;;;19.91;50.31;99022.28;4941391;28;20034;-77
2023/05/26 09:30:50;;;;;;;9.75;6.05;;;;;;;19.56;49.79;99038.09;4963206;28;20047;-77
2023/05/26 09:33:16;;;;;;;14.23;6.40;;;;;;;19.80;49.14;99030.84;4954189;28;20484;-76
2023/05/26 09:35:44;;;;;;;11.45;6.47;;;;;;;20.12;47.41;99031.16;4963351;28;20042;-74
2023/05/26 09:38:14;;;;;;;15.52;6.25;;;;;;;20.49;46.71;99028.66;4925534;29;20027;-77
2023/05/26 09:40:41;;;;;;;10.48;6.20;;;;;;;20.18;47.03;99038.22;4947930;28;20039;-77
2023/05/26 09:43:06;;;;;;;8.77;5.55;;;;;;;20.56;45.99;99022.88;4940617;28;20023;-77
2023/05/26 09:45:36;;;;;;;14.93;6.28;;;;;;;20.65;45.74;99032.88;4973018;28;20089;-77
2023/05/26 09:48:03;;;;;;;10.13;5.75;;;;;;;20.71;46.20;99035.56;4944002;28;20030;-78
2023/05/26 09:50:33;;;;;;;14.80;7.00;;;;;;;20.97;45.55;99034.19;4962516;28;20050;-77
2023/05/26 09:53:00;;;;;;;14.02;6.60;;;;;;;21.37;45.41;99028.25;4950138;29;20042;-77
2023/05/26 09:55:25;;;;;;;10.02;5.97;;;;;;;20.68;45.31;99034.22;4948664;28;20018;-77
2023/05/26 09:57:53;;;;;;;11.57;5.80;;;;;;;20.07;46.62;99035.84;4943960;28;20117;-78
2023/05/26 10:00:20;;;;;;;10.55;6.05;;;;;;;19.64;48.31;99035.59;4945427;29;20038;-77
2023/05/26 10:02:47;;;;;;;10.02;6.18;;;;;;;20.35;45.55;99046.84;4950056;29;20039;-77
2023/05/26 10:05:13;;;;;;;11.27;6.00;;;;;;;20.40;45.00;99029.56;4964762;28;20030;-77
2023/05/26 10:07:41;;;;;;;12.88;6.10;;;;;;;20.32;45.99;99032.94;4951423;28;20153;-77
2023/05/26 10:18:22;;;;;;;15.25;6.50;;;;;;;20.33;45.49;99001.72;4991049;28;20049;-77
2023/05/26 10:21:59;;;;;;;13.20;6.28;;;;;;;20.62;44.52;99013.50;4972652;28;20094;-77
2023/05/26 10:25:01;;;;;;;8.52;5.65;;;;;;;20.28;47.14;99010.00;4953241;28;20108;-77
2023/05/26 10:27:55;;;;;;;11.18;5.95;;;;;;;20.70;45.36;99001.09;4957116;28;20047;-78
2023/05/26 10:30:50;;;;;;;12.52;6.30;;;;;;;20.51;44.66;98993.59;4994443;28;20050;-77
2023/05/26 10:33:46;;;;;;;11.45;6.03;;;;;;;21.17;42.69;98985.47;4989444;28;20066;-77
2023/05/26 10:36:18;;;;;;;10.18;5.63;;;;;;;21.15;43.25;99011.53;4975323;28;20034;-77
2023/05/26 10:39:14;;;;;;;10.23;6.28;;;;;;;21.11;43.66;98985.84;4963265;28;20043;-77
2023/05/26 10:41:51;;;;;;;10.13;5.72;;;;;;;20.48;46.20;98996.94;4956001;28;20117;-77
2023/05/26 10:44:38;;;;;;;14.82;5.82;;;;;;;21.43;43.09;99005.13;4985125;28;20034;-77
2023/05/26 10:47:04;;;;;;;8.48;5.25;;;;;;;21.24;42.79;99004.28;4981451;28;20038;-77
2023/05/26 10:49:35;;;;;;;12.38;5.28;;;;;;;21.64;42.62;99005.66;4988928;28;20138;-76
2023/05/26 10:52:12;;;;;;;10.48;5.65;;;;;;;21.45;43.48;99002.91;4981927;28;20128;-77
2023/05/26 10:54:37;;;;;;;9.70;6.05;;;;;;;21.74;43.74;99000.84;4975440;28;20034;-76
2023/05/26 10:57:03;;;;;;;11.52;5.82;;;;;;;22.21;44.42;98994.38;4980520;28;20029;-77
2023/05/26 10:59:38;;;;;;;11.68;5.35;;;;;;;20.96;43.88;99007.91;4969180;28;20062;-77
2023/05/26 11:02:06;;;;;;;9.38;5.78;;;;;;;21.65;42.83;99005.38;4984067;28;20489;-77
2023/05/26 11:04:44;;;;;;;10.98;5.75;;;;;;;22.43;40.96;98990.94;4961877;28;20397;-77
2023/05/26 11:07:24;;;;;;;10.80;5.50;;;;;;;22.76;40.18;98989.00;4978196;28;20031;-77
2023/05/26 11:10:02;;;;;;;12.93;6.18;;;;;;;22.41;40.45;98993.19;4985539;28;20053;-77
2023/05/26 11:12:48;;;;;;;11.13;5.97;;;;;;;21.65;42.04;98999.91;4988908;28;20614;-77
2023/05/26 11:15:32;;;;;;;10.88;5.57;;;;;;;22.45;40.88;98994.22;4990094;28;20034;-77
2023/05/26 11:18:05;;;;;;;9.15;5.35;;;;;;;22.16;41.69;98990.88;4969401;28;20038;-77
2023/05/26 11:20:31;;;;;;;8.23;5.13;;;;;;;22.40;40.41;98986.09;4982364;28;20592;-77
2023/05/26 11:22:57;;;;;;;9.35;5.60;;;;;;;22.56;40.35;98979.19;4984451;28;20030;-78
2023/05/26 11:25:22;;;;;;;8.82;5.43;;;;;;;22.35;40.22;98969.69;4976554;28;20043;-77
2023/05/26 11:27:48;;;;;;;11.68;5.88;;;;;;;22.13;39.43;98975.84;4984503;28;20050;-78
2023/05/26 11:30:14;;;;;;;8.60;5.03;;;;;;;22.62;41.38;98981.56;4947408;28;20030;-78
2023/05/26 11:32:47;;;;;;;9.95;5.28;;;;;;;22.36;41.12;98974.88;4968231;28;20034;-77
2023/05/26 11:35:26;;;;;;;10.88;5.40;;;;;;;22.13;40.58;98981.31;4988449;28;20054;-77
2023/05/26 11:37:52;;;;;;;8.95;5.20;;;;;;;22.57;37.75;98980.81;4972417;28;20084;-78
2023/05/26 11:40:17;;;;;;;7.97;4.88;;;;;;;22.79;39.21;98978.22;4959418;28;20050;-77
2023/05/26 11:42:46;;;;;;;8.60;4.80;;;;;;;23.72;36.64;98974.03;4988340;28;20038;-78
2023/05/26 11:45:12;;;;;;;8.65;5.18;;;;;;;23.32;37.01;98967.50;4966061;28;20500;-77
2023/05/26 11:47:37;;;;;;;10.05;4.82;;;;;;;23.43;38.34;98965.38;4965638;28;20050;-78
2023/05/26 11:50:07;;;;;;;8.50;5.20;;;;;;;22.25;38.78;98956.97;4987938;28;20122;-78
2023/05/26 11:52:33;;;;;;;7.55;4.85;;;;;;;23.44;37.01;98967.81;4972063;28;20050;-78